![]() |
EMODnet Physics ERDDAP
Easier access to scientific data |
log in|
Brought to you by EMODnet Physics |
| Dataset Title: | NDBC - Collection of dew point temperature (DEWT) TimeSeries - IN SITU MultiPointTimeSeriesObservation
|
| Institution: | NDBC (Dataset ID: TS_DEWT_NDBC) |
| Information: | Summary
| License
| FGDC
| ISO 19115
| Metadata
| Background
| Subset
| Data Access Form
| Make a graph
|
| Name | Last modified | Size | Description | |
|---|---|---|---|---|
| Parent Directory | - | - | ||
| 41040_TS_DEWT_012006.nc | 26-Oct-2024 11:19 | 452180 | ||
| 41040_TS_DEWT_012008.nc | 26-Oct-2024 11:19 | 450942 | ||
| 41040_TS_DEWT_012009.nc | 26-Oct-2024 11:19 | 492446 | ||
| 41040_TS_DEWT_012010.nc | 26-Oct-2024 11:19 | 4433167 | ||
| 41040_TS_DEWT_012011.nc | 26-Oct-2024 11:19 | 425555 | ||
| 41040_TS_DEWT_012012.nc | 26-Oct-2024 11:19 | 429023 | ||
| 41040_TS_DEWT_012014.nc | 26-Oct-2024 11:19 | 423759 | ||
| 41040_TS_DEWT_012015.nc | 26-Oct-2024 11:20 | 428426 | ||
| 41040_TS_DEWT_012016.nc | 26-Oct-2024 11:20 | 429426 | ||
| 41040_TS_DEWT_012017.nc | 26-Oct-2024 11:20 | 428796 | ||
| 41040_TS_DEWT_012018.nc | 26-Oct-2024 11:20 | 424348 | ||
| 41040_TS_DEWT_012019.nc | 26-Oct-2024 11:20 | 429479 | ||
| 41040_TS_DEWT_012020.nc | 26-Oct-2024 11:20 | 428659 | ||
| 41040_TS_DEWT_012021.nc | 26-Oct-2024 11:20 | 428768 | ||
| 41040_TS_DEWT_012022.nc | 26-Oct-2024 11:20 | 429076 | ||
| 41040_TS_DEWT_012024.nc | 26-Oct-2024 11:20 | 429436 | ||
| 41040_TS_DEWT_012025.nc | 07-Feb-2025 11:48 | 429570 | ||
| 41040_TS_DEWT_022006.nc | 26-Oct-2024 11:20 | 429570 | ||
| 41040_TS_DEWT_022008.nc | 26-Oct-2024 11:20 | 429567 | ||
| 41040_TS_DEWT_022009.nc | 26-Oct-2024 11:20 | 429353 | ||
| 41040_TS_DEWT_022010.nc | 26-Oct-2024 11:20 | 429567 | ||
| 41040_TS_DEWT_022011.nc | 26-Oct-2024 11:20 | 448844 | ||
| 41040_TS_DEWT_022012.nc | 26-Oct-2024 11:21 | 448639 | ||
| 41040_TS_DEWT_022014.nc | 26-Oct-2024 11:21 | 4410482 | ||
| 41040_TS_DEWT_022015.nc | 26-Oct-2024 11:21 | 4504328 | ||
| 41040_TS_DEWT_022016.nc | 26-Oct-2024 11:21 | 428668 | ||
| 41040_TS_DEWT_022017.nc | 26-Oct-2024 11:21 | 429322 | ||
| 41040_TS_DEWT_022018.nc | 26-Oct-2024 11:21 | 426906 | ||
| 41040_TS_DEWT_022019.nc | 26-Oct-2024 11:21 | 428605 | ||
| 41040_TS_DEWT_022020.nc | 26-Oct-2024 11:21 | 429856 | ||
| 41040_TS_DEWT_022021.nc | 26-Oct-2024 11:21 | 429332 | ||
| 41040_TS_DEWT_022022.nc | 26-Oct-2024 11:21 | 421616 | ||
| 41040_TS_DEWT_022024.nc | 16-Sep-2024 16:51 | 429736 | ||
| 41040_TS_DEWT_022025.nc | 01-Mar-2025 08:58 | 427069 | ||
| 41040_TS_DEWT_032006.nc | 26-Oct-2024 11:21 | 429869 | ||
| 41040_TS_DEWT_032010.nc | 26-Oct-2024 11:21 | 429805 | ||
| 41040_TS_DEWT_032011.nc | 26-Oct-2024 11:21 | 429912 | ||
| 41040_TS_DEWT_032012.nc | 26-Oct-2024 11:21 | 429908 | ||
| 41040_TS_DEWT_032013.nc | 26-Oct-2024 11:21 | 429656 | ||
| 41040_TS_DEWT_032014.nc | 26-Oct-2024 11:21 | 429911 | ||
| 41040_TS_DEWT_032015.nc | 26-Oct-2024 11:22 | 429869 | ||
| 41040_TS_DEWT_032016.nc | 26-Oct-2024 11:22 | 429906 | ||
| 41040_TS_DEWT_032017.nc | 26-Oct-2024 11:22 | 448605 | ||
| 41040_TS_DEWT_032018.nc | 26-Oct-2024 11:22 | 450143 | ||
| 41040_TS_DEWT_032019.nc | 26-Oct-2024 11:22 | 3840636 | ||
| 41040_TS_DEWT_032020.nc | 26-Oct-2024 11:22 | 4736560 | ||
| 41040_TS_DEWT_032021.nc | 26-Oct-2024 11:22 | 451283 | ||
| 41040_TS_DEWT_032022.nc | 26-Oct-2024 11:22 | 423438 | ||
| 41040_TS_DEWT_032025.nc | 02-Apr-2025 07:08 | 451558 | ||
| 41040_TS_DEWT_042006.nc | 26-Oct-2024 11:22 | 450955 | ||
| 41040_TS_DEWT_042010.nc | 26-Oct-2024 11:22 | 429845 | ||
| 41040_TS_DEWT_042011.nc | 26-Oct-2024 11:22 | 429812 | ||
| 41040_TS_DEWT_042012.nc | 26-Oct-2024 11:22 | 450637 | ||
| 41040_TS_DEWT_042013.nc | 26-Oct-2024 11:22 | 429836 | ||
| 41040_TS_DEWT_042014.nc | 26-Oct-2024 11:22 | 430553 | ||
| 41040_TS_DEWT_042015.nc | 26-Oct-2024 11:22 | 436414 | ||
| 41040_TS_DEWT_042016.nc | 26-Oct-2024 11:22 | 451154 | ||
| 41040_TS_DEWT_042017.nc | 26-Oct-2024 11:23 | 447305 | ||
| 41040_TS_DEWT_042018.nc | 26-Oct-2024 11:23 | 1268955 | ||
| 41040_TS_DEWT_042019.nc | 26-Oct-2024 11:23 | 1266878 | ||
| 41040_TS_DEWT_042020.nc | 26-Oct-2024 11:23 | 1267904 | ||
| 41040_TS_DEWT_042021.nc | 26-Oct-2024 11:23 | 1261667 | ||
| 41040_TS_DEWT_042022.nc | 26-Oct-2024 11:23 | 1144170 | ||
| 41040_TS_DEWT_042023.nc | 26-Oct-2024 11:23 | 955794 | ||
| 41040_TS_DEWT_042025.nc | 01-May-2025 04:40 | 3273472 | ||
| 41040_TS_DEWT_052005.nc | 26-Oct-2024 11:23 | 447474 | ||
| 41040_TS_DEWT_052006.nc | 26-Oct-2024 11:23 | 447773 | ||
| 41040_TS_DEWT_052007.nc | 26-Oct-2024 11:23 | 448223 | ||
| 41040_TS_DEWT_052008.nc | 26-Oct-2024 11:23 | 429156 | ||
| 41040_TS_DEWT_052009.nc | 26-Oct-2024 11:23 | 428779 | ||
| 41040_TS_DEWT_052010.nc | 26-Oct-2024 11:23 | 447238 | ||
| 41040_TS_DEWT_052011.nc | 26-Oct-2024 11:23 | 428808 | ||
| 41040_TS_DEWT_052012.nc | 26-Oct-2024 11:23 | 436080 | ||
| 41040_TS_DEWT_052013.nc | 26-Oct-2024 11:23 | 425089 | ||
| 41040_TS_DEWT_052014.nc | 26-Oct-2024 11:24 | 449397 | ||
| 41040_TS_DEWT_052015.nc | 26-Oct-2024 11:24 | 428804 | ||
| 41040_TS_DEWT_052016.nc | 26-Oct-2024 11:24 | 1027759 | ||
| 41040_TS_DEWT_052017.nc | 26-Oct-2024 11:24 | 1112465 | ||
| 41040_TS_DEWT_052018.nc | 26-Oct-2024 11:24 | 1028640 | ||
| 41040_TS_DEWT_052019.nc | 26-Oct-2024 11:24 | 1020954 | ||
| 41040_TS_DEWT_052020.nc | 26-Oct-2024 11:24 | 918115 | ||
| 41040_TS_DEWT_052021.nc | 26-Oct-2024 11:24 | 421881 | ||
| 41040_TS_DEWT_052022.nc | 26-Oct-2024 11:24 | 4963697 | ||
| 41040_TS_DEWT_052023.nc | 26-Oct-2024 11:24 | 421989 | ||
| 41040_TS_DEWT_052025.nc | 01-Jun-2025 04:52 | 451581 | ||
| 41040_TS_DEWT_062005.nc | 26-Oct-2024 11:24 | 431556 | ||
| 41040_TS_DEWT_062006.nc | 26-Oct-2024 11:24 | 450437 | ||
| 41040_TS_DEWT_062007.nc | 26-Oct-2024 11:24 | 451453 | ||
| 41040_TS_DEWT_062008.nc | 26-Oct-2024 11:24 | 429836 | ||
| 41040_TS_DEWT_062009.nc | 26-Oct-2024 11:25 | 430053 | ||
| 41040_TS_DEWT_062010.nc | 26-Oct-2024 11:25 | 450428 | ||
| 41040_TS_DEWT_062011.nc | 26-Oct-2024 11:25 | 429813 | ||
| 41040_TS_DEWT_062012.nc | 26-Oct-2024 11:25 | 420723 | ||
| 41040_TS_DEWT_062013.nc | 26-Oct-2024 11:25 | 450952 | ||
| 41040_TS_DEWT_062014.nc | 26-Oct-2024 11:25 | 429815 | ||
| 41040_TS_DEWT_062015.nc | 26-Oct-2024 11:25 | 1267608 | ||
| 41040_TS_DEWT_062016.nc | 26-Oct-2024 11:25 | 1264556 | ||
| 41040_TS_DEWT_062017.nc | 26-Oct-2024 11:25 | 1006559 | ||
| 41040_TS_DEWT_062018.nc | 26-Oct-2024 11:25 | 1259720 | ||
| 41040_TS_DEWT_062019.nc | 26-Oct-2024 11:25 | 1144242 | ||
| 41040_TS_DEWT_062020.nc | 26-Oct-2024 11:25 | 3572307 | ||
| 41040_TS_DEWT_062021.nc | 26-Oct-2024 11:25 | 450216 | ||
| 41040_TS_DEWT_062022.nc | 26-Oct-2024 11:25 | 448959 | ||
| 41040_TS_DEWT_062023.nc | 26-Oct-2024 11:25 | 448736 | ||
| 41040_TS_DEWT_062025.nc | 01-Jul-2025 04:59 | 450886 | ||
| 41040_TS_DEWT_072005.nc | 26-Oct-2024 11:26 | 450672 | ||
| 41040_TS_DEWT_072006.nc | 26-Oct-2024 11:26 | 429496 | ||
| 41040_TS_DEWT_072007.nc | 26-Oct-2024 11:26 | 450316 | ||
| 41040_TS_DEWT_072008.nc | 26-Oct-2024 11:26 | 448474 | ||
| 41040_TS_DEWT_072009.nc | 26-Oct-2024 11:26 | 441516 | ||
| 41040_TS_DEWT_072010.nc | 26-Oct-2024 11:26 | 426556 | ||
| 41040_TS_DEWT_072011.nc | 26-Oct-2024 11:26 | 444183 | ||
| 41040_TS_DEWT_072012.nc | 26-Oct-2024 11:26 | 449586 | ||
| 41040_TS_DEWT_072013.nc | 26-Oct-2024 11:26 | 435323 | ||
| 41040_TS_DEWT_072014.nc | 26-Oct-2024 11:26 | 1116178 | ||
| 41040_TS_DEWT_072015.nc | 26-Oct-2024 11:26 | 1116189 | ||
| 41040_TS_DEWT_072016.nc | 26-Oct-2024 11:26 | 1082066 | ||
| 41040_TS_DEWT_072017.nc | 26-Oct-2024 11:26 | 995554 | ||
| 41040_TS_DEWT_072018.nc | 26-Oct-2024 11:26 | 449601 | ||
| 41040_TS_DEWT_072019.nc | 26-Oct-2024 11:27 | 450546 | ||
| 41040_TS_DEWT_072020.nc | 26-Oct-2024 11:27 | 450479 | ||
| 41040_TS_DEWT_072021.nc | 26-Oct-2024 11:27 | 450462 | ||
| 41040_TS_DEWT_072022.nc | 26-Oct-2024 11:27 | 450581 | ||
| 41040_TS_DEWT_072023.nc | 26-Oct-2024 11:27 | 429834 | ||
| 41040_TS_DEWT_072025.nc | 01-Aug-2025 05:07 | 449488 | ||
| 41040_TS_DEWT_082005.nc | 26-Oct-2024 11:27 | 450500 | ||
| 41040_TS_DEWT_082006.nc | 26-Oct-2024 11:27 | 438812 | ||
| 41040_TS_DEWT_082007.nc | 26-Oct-2024 11:27 | 450152 | ||
| 41040_TS_DEWT_082008.nc | 26-Oct-2024 11:27 | 451307 | ||
| 41040_TS_DEWT_082009.nc | 26-Oct-2024 11:27 | 451277 | ||
| 41040_TS_DEWT_082010.nc | 26-Oct-2024 11:27 | 449493 | ||
| 41040_TS_DEWT_082011.nc | 26-Oct-2024 11:27 | 1266683 | ||
| 41040_TS_DEWT_082012.nc | 26-Oct-2024 11:27 | 1267042 | ||
| 41040_TS_DEWT_082013.nc | 26-Oct-2024 11:27 | 1144149 | ||
| 41040_TS_DEWT_082014.nc | 26-Oct-2024 11:27 | 1144171 | ||
| 41040_TS_DEWT_082015.nc | 26-Oct-2024 11:28 | 4404680 | ||
| 41040_TS_DEWT_082016.nc | 26-Oct-2024 11:28 | 449502 | ||
| 41040_TS_DEWT_082017.nc | 26-Oct-2024 11:28 | 448579 | ||
| 41040_TS_DEWT_082018.nc | 26-Oct-2024 11:28 | 448615 | ||
| 41040_TS_DEWT_082019.nc | 26-Oct-2024 11:28 | 450338 | ||
| 41040_TS_DEWT_082020.nc | 26-Oct-2024 11:28 | 450122 | ||
| 41040_TS_DEWT_082021.nc | 26-Oct-2024 11:28 | 429496 | ||
| 41040_TS_DEWT_082023.nc | 26-Oct-2024 11:28 | 449303 | ||
| 41040_TS_DEWT_082025.nc | 01-Sep-2025 04:57 | 437803 | ||
| 41040_TS_DEWT_092005.nc | 26-Oct-2024 11:28 | 449118 | ||
| 41040_TS_DEWT_092006.nc | 26-Oct-2024 11:28 | 437531 | ||
| 41040_TS_DEWT_092007.nc | 26-Oct-2024 11:28 | 450597 | ||
| 41040_TS_DEWT_092008.nc | 26-Oct-2024 11:28 | 450537 | ||
| 41040_TS_DEWT_092009.nc | 26-Oct-2024 11:28 | 450126 | ||
| 41040_TS_DEWT_092010.nc | 26-Oct-2024 11:28 | 1114183 | ||
| 41040_TS_DEWT_092011.nc | 26-Oct-2024 11:29 | 960042 | ||
| 41040_TS_DEWT_092012.nc | 26-Oct-2024 11:29 | 1114606 | ||
| 41040_TS_DEWT_092013.nc | 26-Oct-2024 11:29 | 995674 | ||
| 41040_TS_DEWT_092014.nc | 26-Oct-2024 11:29 | 1082841 | ||
| 41040_TS_DEWT_092015.nc | 26-Oct-2024 11:29 | 5190902 | ||
| 41040_TS_DEWT_092016.nc | 26-Oct-2024 11:29 | 450078 | ||
| 41040_TS_DEWT_092017.nc | 26-Oct-2024 11:29 | 451330 | ||
| 41040_TS_DEWT_092018.nc | 26-Oct-2024 11:29 | 451018 | ||
| 41040_TS_DEWT_092019.nc | 26-Oct-2024 11:29 | 451089 | ||
| 41040_TS_DEWT_092020.nc | 26-Oct-2024 11:29 | 449858 | ||
| 41040_TS_DEWT_092021.nc | 26-Oct-2024 11:29 | 429830 | ||
| 41040_TS_DEWT_092023.nc | 26-Oct-2024 11:29 | 449921 | ||
| 41040_TS_DEWT_092025.nc | 01-Oct-2025 04:44 | 429835 | ||
| 41040_TS_DEWT_102005.nc | 26-Oct-2024 11:29 | 435002 | ||
| 41040_TS_DEWT_102006.nc | 26-Oct-2024 11:29 | 450551 | ||
| 41040_TS_DEWT_102007.nc | 26-Oct-2024 11:29 | 429796 | ||
| 41040_TS_DEWT_102008.nc | 26-Oct-2024 11:29 | 443065 | ||
| 41040_TS_DEWT_102009.nc | 26-Oct-2024 11:30 | 450063 | ||
| 41040_TS_DEWT_102010.nc | 26-Oct-2024 11:30 | 429826 | ||
| 41040_TS_DEWT_102011.nc | 26-Oct-2024 11:30 | 1266205 | ||
| 41040_TS_DEWT_102012.nc | 26-Oct-2024 11:30 | 1265424 | ||
| 41040_TS_DEWT_102013.nc | 26-Oct-2024 11:30 | 1106791 | ||
| 41040_TS_DEWT_102014.nc | 26-Oct-2024 11:30 | 1032764 | ||
| 41040_TS_DEWT_102015.nc | 26-Oct-2024 11:30 | 1144089 | ||
| 41040_TS_DEWT_102016.nc | 26-Oct-2024 11:30 | 1267304 | ||
| 41040_TS_DEWT_102017.nc | 26-Oct-2024 11:30 | 4829046 | ||
| 41040_TS_DEWT_102018.nc | 26-Oct-2024 11:30 | 450474 | ||
| 41040_TS_DEWT_102019.nc | 26-Oct-2024 11:30 | 421494 | ||
| 41040_TS_DEWT_102020.nc | 26-Oct-2024 11:30 | 449985 | ||
| 41040_TS_DEWT_102021.nc | 26-Oct-2024 11:30 | 450647 | ||
| 41040_TS_DEWT_102023.nc | 26-Oct-2024 11:30 | 451118 | ||
| 41040_TS_DEWT_102025.nc | 01-Nov-2025 07:41 | 429835 | ||
| 41040_TS_DEWT_112005.nc | 26-Oct-2024 11:30 | 450535 | ||
| 41040_TS_DEWT_112006.nc | 26-Oct-2024 11:30 | 429833 | ||
| 41040_TS_DEWT_112007.nc | 26-Oct-2024 11:30 | 430427 | ||
| 41040_TS_DEWT_112008.nc | 26-Oct-2024 11:31 | 433078 | ||
| 41040_TS_DEWT_112009.nc | 26-Oct-2024 11:31 | 429821 | ||
| 41040_TS_DEWT_112010.nc | 26-Oct-2024 11:31 | 450479 | ||
| 41040_TS_DEWT_112011.nc | 26-Oct-2024 11:31 | 451483 | ||
| 41040_TS_DEWT_112012.nc | 26-Oct-2024 11:31 | 429837 | ||
| 41040_TS_DEWT_112013.nc | 26-Oct-2024 11:31 | 1266904 | ||
| 41040_TS_DEWT_112014.nc | 26-Oct-2024 11:31 | 1264296 | ||
| 41040_TS_DEWT_112015.nc | 26-Oct-2024 11:31 | 1266645 | ||
| 41040_TS_DEWT_112016.nc | 26-Oct-2024 11:31 | 1262491 | ||
| 41040_TS_DEWT_112017.nc | 26-Oct-2024 11:31 | 1144127 | ||
| 41040_TS_DEWT_112018.nc | 26-Oct-2024 11:31 | 1267372 | ||
| 41040_TS_DEWT_112019.nc | 26-Oct-2024 11:31 | 5553524 | ||
| 41040_TS_DEWT_112020.nc | 26-Oct-2024 11:31 | 436105 | ||
| 41040_TS_DEWT_112021.nc | 26-Oct-2024 11:31 | 449029 | ||
| 41040_TS_DEWT_112023.nc | 26-Oct-2024 11:31 | 448862 | ||
| 41040_TS_DEWT_112024.nc | 17-Jan-2025 15:09 | 449719 | ||
| 41040_TS_DEWT_112025.nc | 16-Dec-2025 13:24 | 429494 | ||
| 41040_TS_DEWT_122005.nc | 26-Oct-2024 11:32 | 448849 | ||
| 41040_TS_DEWT_122006.nc | 26-Oct-2024 11:32 | 429490 | ||
| 41040_TS_DEWT_122007.nc | 26-Oct-2024 11:32 | 432603 | ||
| 41040_TS_DEWT_122008.nc | 26-Oct-2024 11:32 | 418819 | ||
| 41040_TS_DEWT_122009.nc | 26-Oct-2024 11:32 | 429475 | ||
| 41040_TS_DEWT_122010.nc | 26-Oct-2024 11:32 | 450130 | ||
| 41040_TS_DEWT_122011.nc | 26-Oct-2024 11:32 | 449953 | ||
| 41040_TS_DEWT_122013.nc | 26-Oct-2024 11:32 | 429491 | ||
| 41040_TS_DEWT_122014.nc | 26-Oct-2024 11:32 | 1111836 | ||
| 41040_TS_DEWT_122015.nc | 26-Oct-2024 11:32 | 1109655 | ||
| 41040_TS_DEWT_122016.nc | 26-Oct-2024 11:32 | 1114444 | ||
| 41040_TS_DEWT_122017.nc | 26-Oct-2024 11:32 | 1115978 | ||
| 41040_TS_DEWT_122018.nc | 26-Oct-2024 11:32 | 995729 | ||
| 41040_TS_DEWT_122019.nc | 26-Oct-2024 11:32 | 1114200 | ||
| 41040_TS_DEWT_122020.nc | 26-Oct-2024 11:32 | 4905843 | ||
| 41040_TS_DEWT_122021.nc | 26-Oct-2024 11:33 | 434799 | ||
| 41040_TS_DEWT_122023.nc | 26-Oct-2024 11:33 | 445863 | ||
| 41040_TS_DEWT_122024.nc | 22-Jan-2025 16:42 | 450536 | ||